createdAt,value
2023-06-29T00:01:03.742Z,101319.67
2023-06-29T00:04:33.089Z,101323.52
2023-06-29T00:07:49.409Z,101323.35
2023-06-29T00:11:19.111Z,101327.08
2023-06-29T00:14:49.017Z,101328.58
2023-06-29T00:18:18.250Z,101327.56
2023-06-29T00:21:47.484Z,101323.86
2023-06-29T00:25:21.003Z,101315.98
2023-06-29T00:28:50.406Z,101312.66
2023-06-29T00:32:13.256Z,101309.52
2023-06-29T00:35:42.808Z,101305.86
2023-06-29T00:39:12.934Z,101302.58
2023-06-29T00:42:35.055Z,101303.61
2023-06-29T00:46:04.266Z,101300.39
2023-06-29T00:49:33.473Z,101305.71
2023-06-29T00:53:02.517Z,101305.59
2023-06-29T00:56:32.076Z,101302.46
2023-06-29T01:00:01.158Z,101298.84
2023-06-29T01:03:32.391Z,101301.98
2023-06-29T01:07:01.877Z,101303.94
2023-06-29T01:10:32.154Z,101301.73
2023-06-29T01:14:01.098Z,101310.17
2023-06-29T01:17:30.377Z,101318.91
2023-06-29T01:21:00.329Z,101319.21
2023-06-29T01:24:29.528Z,101317.64
2023-06-29T01:27:59.040Z,101316.20
2023-06-29T01:31:28.054Z,101317.23
2023-06-29T01:34:57.059Z,101325.09
2023-06-29T01:38:35.580Z,101328.05
2023-06-29T01:41:57.919Z,101334.63
2023-06-29T01:45:10.317Z,101339.31
2023-06-29T01:48:39.876Z,101343.80
2023-06-29T01:52:08.924Z,101343.02
2023-06-29T01:55:38.959Z,101340.48
2023-06-29T01:59:09.187Z,101333.61
2023-06-29T02:02:37.657Z,101331.31
2023-06-29T02:06:06.713Z,101327.27
2023-06-29T02:09:36.031Z,101322.62
2023-06-29T02:13:05.045Z,101315.16
2023-06-29T02:16:23.610Z,101311.88
2023-06-29T02:19:52.865Z,101309.59
2023-06-29T02:23:22.511Z,101309.95
2023-06-29T02:26:51.619Z,101313.11
2023-06-29T02:30:20.837Z,101312.55
2023-06-29T02:33:50.124Z,101318.15
2023-06-29T02:37:19.754Z,101322.35
2023-06-29T02:40:49.695Z,101321.14
2023-06-29T02:44:18.884Z,101321.50
2023-06-29T02:47:48.365Z,101321.86
2023-06-29T02:51:18.133Z,101315.73
2023-06-29T02:54:48.649Z,101316.45
2023-06-29T02:58:17.889Z,101311.19
2023-06-29T03:01:46.901Z,101314.20
2023-06-29T03:05:15.603Z,101317.22
2023-06-29T03:08:44.468Z,101316.02
2023-06-29T03:12:14.064Z,101317.79
2023-06-29T03:15:43.591Z,101316.90
2023-06-29T03:19:12.951Z,101313.95
2023-06-29T03:22:34.988Z,101309.05
2023-06-29T03:26:04.217Z,101310.49
2023-06-29T03:29:33.167Z,101313.17
2023-06-29T03:33:02.172Z,101316.73
2023-06-29T03:36:31.525Z,101325.05
2023-06-29T03:40:00.580Z,101321.23
2023-06-29T03:43:30.811Z,101321.85
2023-06-29T03:47:00.000Z,101324.58
2023-06-29T03:50:28.019Z,101318.87
2023-06-29T03:53:57.052Z,101308.27
2023-06-29T03:57:26.111Z,101307.30
2023-06-29T04:00:55.234Z,101309.68
2023-06-29T04:04:17.583Z,101311.88
2023-06-29T04:07:46.672Z,101309.66
2023-06-29T04:11:15.576Z,101316.02
2023-06-29T04:14:44.773Z,101318.57
2023-06-29T04:18:13.687Z,101320.05
2023-06-29T04:21:42.990Z,101321.00
2023-06-29T04:25:05.792Z,101324.59
2023-06-29T04:28:35.118Z,101327.64
2023-06-29T04:31:44.218Z,101332.05
2023-06-29T04:35:12.908Z,101335.45
2023-06-29T04:38:41.850Z,101331.50
2023-06-29T04:42:11.171Z,101337.89
2023-06-29T04:45:41.784Z,101338.52
2023-06-29T04:49:11.337Z,101334.54
2023-06-29T04:52:23.640Z,101337.75
2023-06-29T04:55:53.066Z,101341.13
2023-06-29T04:59:15.346Z,101342.61
2023-06-29T05:02:44.873Z,101338.46
2023-06-29T05:06:14.933Z,101338.17
2023-06-29T05:09:44.185Z,101342.43
2023-06-29T05:13:13.623Z,101348.42
2023-06-29T05:16:43.293Z,101357.92
2023-06-29T05:20:13.706Z,101359.70
2023-06-29T05:23:43.075Z,101355.70
2023-06-29T05:26:52.386Z,101358.73
2023-06-29T05:30:01.068Z,101362.80
2023-06-29T05:33:09.674Z,101364.76
2023-06-29T05:36:18.300Z,101363.53
2023-06-29T05:39:26.898Z,101363.58
2023-06-29T05:42:35.433Z,101367.80
2023-06-29T05:45:44.394Z,101368.34
2023-06-29T05:48:54.114Z,101370.30
2023-06-29T05:52:03.515Z,101368.70
2023-06-29T05:55:12.700Z,101364.67
2023-06-29T05:58:21.637Z,101369.08
2023-06-29T06:01:30.192Z,101367.84
2023-06-29T06:04:37.425Z,101368.05
2023-06-29T06:07:39.188Z,101365.25
2023-06-29T06:10:48.394Z,101365.77
2023-06-29T06:13:56.658Z,101370.31
2023-06-29T06:17:04.904Z,101368.77
2023-06-29T06:20:03.437Z,101364.90
2023-06-29T06:23:11.801Z,101366.84
2023-06-29T06:26:21.640Z,101376.29
2023-06-29T06:29:30.304Z,101381.89
2023-06-29T06:32:38.537Z,101385.73
2023-06-29T06:35:48.167Z,101385.05
2023-06-29T06:38:56.391Z,101386.61
2023-06-29T06:42:04.882Z,101388.37
2023-06-29T06:45:13.788Z,101393.80
2023-06-29T06:48:20.959Z,101403.63
2023-06-29T06:51:30.775Z,101407.15
2023-06-29T06:54:40.430Z,101406.48
2023-06-29T06:57:49.037Z,101408.60
2023-06-29T07:00:57.588Z,101419.32
2023-06-29T07:04:06.147Z,101418.98
2023-06-29T07:07:14.742Z,101414.10
2023-06-29T07:10:23.539Z,101408.71
2023-06-29T07:13:32.292Z,101406.11
2023-06-29T07:16:41.100Z,101404.36
2023-06-29T07:26:22.729Z,101417.20
2023-06-29T07:29:31.155Z,101417.74
2023-06-29T07:32:32.812Z,101422.13
2023-06-29T07:35:41.247Z,101426.52
2023-06-29T07:38:49.128Z,101426.19
2023-06-29T07:41:56.551Z,101419.02
2023-06-29T07:45:05.046Z,101419.19
2023-06-29T07:48:14.422Z,101422.17
2023-06-29T07:51:22.938Z,101425.83
2023-06-29T07:54:31.651Z,101430.73
2023-06-29T08:00:31.947Z,101433.55
2023-06-29T08:03:55.986Z,101438.96
2023-06-29T08:07:10.416Z,101440.38
2023-06-29T08:10:19.184Z,101443.52
2023-06-29T08:13:27.576Z,101445.27
2023-06-29T08:16:35.883Z,101450.34
2023-06-29T08:19:43.157Z,101449.11
2023-06-29T08:22:51.741Z,101442.65
2023-06-29T08:26:00.957Z,101451.23
2023-06-29T08:29:09.253Z,101457.17
2023-06-29T08:32:17.661Z,101462.97
2023-06-29T08:35:25.928Z,101464.02
2023-06-29T08:38:34.314Z,101465.07
2023-06-29T08:41:42.578Z,101472.58
2023-06-29T08:44:50.932Z,101467.52
2023-06-29T08:47:58.615Z,101466.46
2023-06-29T08:51:07.726Z,101462.63
2023-06-29T08:54:15.946Z,101463.70
2023-06-29T08:57:25.706Z,101462.63
2023-06-29T09:00:28.100Z,101457.38
2023-06-29T09:03:38.398Z,101452.85
2023-06-29T09:06:46.961Z,101451.44
2023-06-29T09:09:55.542Z,101458.42
2023-06-29T09:13:04.256Z,101460.52
2023-06-29T09:16:03.338Z,101466.98
2023-06-29T09:19:11.912Z,101473.09
2023-06-29T09:22:20.589Z,101475.19
2023-06-29T09:25:34.738Z,101479.20
2023-06-29T09:28:47.562Z,101480.94
2023-06-29T09:31:56.297Z,101487.21
2023-06-29T09:35:05.100Z,101486.33
2023-06-29T09:38:13.309Z,101490.16
2023-06-29T09:41:30.965Z,101492.21
2023-06-29T09:44:34.983Z,101494.12
2023-06-29T09:51:04.269Z,101493.21
2023-06-29T09:54:14.163Z,101493.90
2023-06-29T09:57:25.540Z,101486.73
2023-06-29T10:00:15.018Z,101491.42
2023-06-29T10:03:23.460Z,101494.89
2023-06-29T10:06:32.092Z,101496.80
2023-06-29T10:09:33.757Z,101506.39
2023-06-29T10:12:42.354Z,101513.71
2023-06-29T10:15:50.761Z,101510.55
2023-06-29T10:18:59.507Z,101503.73
2023-06-29T10:22:08.145Z,101496.04
2023-06-29T10:25:09.933Z,101493.23
2023-06-29T10:28:18.592Z,101488.16
2023-06-29T10:31:27.270Z,101483.44
2023-06-29T10:34:35.823Z,101481.69
2023-06-29T10:37:45.415Z,101482.02
2023-06-29T10:40:54.141Z,101490.93
2023-06-29T10:44:02.734Z,101496.34
2023-06-29T10:47:23.715Z,101501.06
2023-06-29T10:50:35.285Z,101507.66
2023-06-29T10:53:43.924Z,101514.14
2023-06-29T10:56:52.576Z,101519.55
2023-06-29T11:00:01.494Z,101511.00
2023-06-29T11:03:10.333Z,101503.30
2023-06-29T11:09:53.465Z,101516.52
2023-06-29T11:13:02.111Z,101517.53
2023-06-29T11:16:10.716Z,101516.11
2023-06-29T11:19:19.292Z,101517.50
2023-06-29T11:22:27.965Z,101513.83
2023-06-29T11:25:35.198Z,101512.23
2023-06-29T11:28:43.625Z,101516.41
2023-06-29T11:31:52.424Z,101521.30
2023-06-29T11:35:01.540Z,101526.17
2023-06-29T11:38:10.505Z,101528.44
2023-06-29T11:41:19.111Z,101526.52
2023-06-29T11:44:27.540Z,101528.95
2023-06-29T11:47:33.210Z,101529.28
2023-06-29T11:50:36.421Z,101524.91
2023-06-29T11:53:45.309Z,101524.36
2023-06-29T11:57:11.215Z,101537.78
2023-06-29T12:00:16.140Z,101545.27
2023-06-29T12:03:24.750Z,101545.42
2023-06-29T12:06:33.495Z,101545.76
2023-06-29T12:09:42.155Z,101546.30
2023-06-29T12:12:50.925Z,101544.05
2023-06-29T12:19:10.912Z,101550.71
2023-06-29T12:22:19.786Z,101554.72
2023-06-29T12:25:32.221Z,101559.76
2023-06-29T12:28:40.999Z,101558.70
2023-06-29T12:31:50.037Z,101556.42
2023-06-29T12:34:58.544Z,101558.99
2023-06-29T12:38:07.142Z,101566.12
2023-06-29T12:41:15.876Z,101566.60
2023-06-29T12:44:25.514Z,101569.50
2023-06-29T12:47:34.082Z,101574.20
2023-06-29T12:50:42.738Z,101579.94
2023-06-29T12:53:51.227Z,101583.23
2023-06-29T12:56:52.658Z,101585.85
2023-06-29T13:00:01.042Z,101587.55
2023-06-29T13:03:10.098Z,101585.59
2023-06-29T13:06:18.840Z,101585.58
2023-06-29T13:09:27.342Z,101588.20
2023-06-29T13:12:36.108Z,101593.08
2023-06-29T13:15:45.060Z,101591.67
2023-06-29T13:18:53.856Z,101600.73
2023-06-29T13:22:02.503Z,101598.63
2023-06-29T13:25:12.214Z,101603.89
2023-06-29T13:28:19.707Z,101606.14
2023-06-29T13:31:28.627Z,101605.95
2023-06-29T13:34:37.555Z,101609.79
2023-06-29T13:37:46.199Z,101613.62
2023-06-29T13:40:55.038Z,101613.84
2023-06-29T13:44:03.656Z,101612.64
2023-06-29T13:47:12.471Z,101612.46
2023-06-29T13:50:25.512Z,101607.56
2023-06-29T13:53:37.827Z,101607.03
2023-06-29T13:56:46.820Z,101601.98
2023-06-29T13:59:55.491Z,101601.48
2023-06-29T14:03:04.524Z,101602.67
2023-06-29T14:06:12.119Z,101600.40
2023-06-29T14:09:13.685Z,101598.83
2023-06-29T14:12:22.327Z,101599.69
2023-06-29T14:15:30.916Z,101598.27
2023-06-29T14:18:39.599Z,101600.38
2023-06-29T14:21:47.932Z,101597.80
2023-06-29T14:24:56.640Z,101602.53
2023-06-29T14:28:05.724Z,101603.80
2023-06-29T14:31:14.596Z,101603.49
2023-06-29T14:34:23.360Z,101606.35
2023-06-29T14:37:31.922Z,101610.71
2023-06-29T14:40:40.463Z,101615.61
2023-06-29T14:43:49.161Z,101619.79
2023-06-29T14:46:58.934Z,101620.48
2023-06-29T14:50:07.824Z,101630.97
2023-06-29T14:53:16.589Z,101636.03
2023-06-29T14:56:26.351Z,101640.04
2023-06-29T14:59:25.197Z,101638.27
2023-06-29T15:02:34.510Z,101641.58
2023-06-29T15:05:43.824Z,101645.25
2023-06-29T15:08:52.745Z,101645.11
2023-06-29T15:11:51.861Z,101646.02
2023-06-29T15:15:00.335Z,101645.15
2023-06-29T15:18:08.619Z,101646.04
2023-06-29T15:21:17.174Z,101649.01
2023-06-29T15:24:26.393Z,101648.33
2023-06-29T15:27:34.615Z,101646.27
2023-06-29T15:30:41.114Z,101647.15
2023-06-29T15:33:59.899Z,101652.40
2023-06-29T15:37:08.202Z,101651.55
2023-06-29T15:40:16.478Z,101649.12
2023-06-29T15:43:24.694Z,101649.50
2023-06-29T15:46:33.402Z,101649.02
2023-06-29T15:49:41.680Z,101653.05
2023-06-29T15:52:49.996Z,101655.86
2023-06-29T15:55:59.898Z,101650.98
2023-06-29T15:58:50.838Z,101652.38
2023-06-29T16:01:59.093Z,101653.27
2023-06-29T16:05:07.540Z,101656.59
2023-06-29T16:08:15.824Z,101660.28
2023-06-29T16:11:24.368Z,101662.73
2023-06-29T16:14:32.596Z,101667.98
2023-06-29T16:17:40.878Z,101667.11
2023-06-29T16:20:49.296Z,101672.20
2023-06-29T16:23:57.530Z,101672.73
2023-06-29T16:27:06.615Z,101670.29
2023-06-29T16:30:14.818Z,101669.60
2023-06-29T16:33:23.516Z,101675.70
2023-06-29T16:36:31.903Z,101670.13
2023-06-29T16:39:40.647Z,101667.52
2023-06-29T16:42:49.406Z,101663.86
2023-06-29T16:45:59.177Z,101667.00
2023-06-29T16:49:08.997Z,101669.78
2023-06-29T16:52:17.263Z,101663.83
2023-06-29T16:55:26.597Z,101661.89
2023-06-29T16:58:35.403Z,101660.66
2023-06-29T17:01:44.231Z,101661.67
2023-06-29T17:04:52.495Z,101660.44
2023-06-29T17:08:01.923Z,101658.19
2023-06-29T17:11:03.768Z,101660.63
2023-06-29T17:14:05.495Z,101661.53
2023-06-29T17:17:12.597Z,101660.85
2023-06-29T17:20:21.382Z,101661.76
2023-06-29T17:23:30.047Z,101658.30
2023-06-29T17:26:27.203Z,101660.45
2023-06-29T17:29:36.641Z,101659.07
2023-06-29T17:32:45.230Z,101655.25
2023-06-29T17:35:53.691Z,101658.25
2023-06-29T17:39:02.882Z,101660.55
2023-06-29T17:42:11.272Z,101662.48
2023-06-29T17:45:19.856Z,101666.86
2023-06-29T17:48:28.903Z,101668.10
2023-06-29T17:51:37.444Z,101662.88
2023-06-29T17:54:47.175Z,101658.88
2023-06-29T17:57:55.563Z,101655.91
2023-06-29T18:01:04.631Z,101660.81
2023-06-29T18:04:13.485Z,101655.59
2023-06-29T18:07:22.199Z,101655.27
2023-06-29T18:10:30.729Z,101654.75
2023-06-29T18:13:39.472Z,101647.61
2023-06-29T18:16:48.200Z,101645.53
2023-06-29T18:19:57.279Z,101646.25
2023-06-29T18:23:05.937Z,101644.02
2023-06-29T18:26:14.531Z,101648.41
2023-06-29T18:29:23.350Z,101653.16
2023-06-29T18:32:31.216Z,101646.89
2023-06-29T18:35:39.902Z,101636.96
2023-06-29T18:38:48.357Z,101641.36
2023-06-29T18:42:09.609Z,101642.24
2023-06-29T18:45:02.109Z,101644.04
2023-06-29T18:48:10.417Z,101636.17
2023-06-29T18:51:19.736Z,101628.35
2023-06-29T18:54:27.996Z,101624.69
2023-06-29T18:57:36.247Z,101634.85
2023-06-29T19:00:44.500Z,101635.40
2023-06-29T19:03:52.912Z,101635.77
2023-06-29T19:07:01.683Z,101634.21
2023-06-29T19:10:10.001Z,101629.52
2023-06-29T19:13:18.305Z,101626.17
2023-06-29T19:16:27.037Z,101630.38
2023-06-29T19:19:35.270Z,101627.56
2023-06-29T19:22:44.903Z,101627.90
2023-06-29T19:25:46.836Z,101626.31
2023-06-29T19:28:55.279Z,101624.35
2023-06-29T19:31:56.292Z,101629.25
2023-06-29T19:35:04.605Z,101626.59
2023-06-29T19:38:12.949Z,101633.77
2023-06-29T19:41:21.166Z,101633.20
2023-06-29T19:44:29.438Z,101628.11
2023-06-29T19:47:37.680Z,101628.25
2023-06-29T19:50:47.107Z,101632.04
2023-06-29T19:53:48.045Z,101635.30
2023-06-29T19:56:56.266Z,101632.45
2023-06-29T20:00:04.574Z,101631.33
2023-06-29T20:03:13.441Z,101632.15
2023-06-29T20:06:21.990Z,101629.10
2023-06-29T20:09:30.243Z,101626.09
2023-06-29T20:12:31.321Z,101624.27
2023-06-29T20:15:29.825Z,101615.13
2023-06-29T20:18:38.267Z,101611.75
2023-06-29T20:21:46.603Z,101610.48
2023-06-29T20:24:55.374Z,101613.05
2023-06-29T20:27:55.266Z,101609.48
2023-06-29T20:30:56.710Z,101604.17
2023-06-29T20:34:06.152Z,101601.11
2023-06-29T20:37:14.771Z,101601.23
2023-06-29T20:40:23.395Z,101598.54
2023-06-29T20:43:33.266Z,101600.77
2023-06-29T20:46:36.768Z,101607.41
2023-06-29T20:49:44.997Z,101606.33
2023-06-29T20:52:45.852Z,101603.09
2023-06-29T20:55:54.784Z,101603.22
2023-06-29T20:59:03.233Z,101600.34
2023-06-29T21:02:11.872Z,101598.70
2023-06-29T21:05:20.876Z,101598.29
2023-06-29T21:08:30.614Z,101594.38
2023-06-29T21:11:42.025Z,101594.30
2023-06-29T21:14:50.734Z,101588.40
2023-06-29T21:17:59.257Z,101585.52
2023-06-29T21:21:07.687Z,101579.98
2023-06-29T21:24:16.902Z,101578.66
2023-06-29T21:27:25.214Z,101572.96
2023-06-29T21:30:23.833Z,101567.27
2023-06-29T21:33:32.311Z,101568.55
2023-06-29T21:36:40.801Z,101563.89
2023-06-29T21:39:49.546Z,101563.27
2023-06-29T21:42:58.648Z,101560.02
2023-06-29T21:45:59.661Z,101555.55
2023-06-29T21:49:08.373Z,101556.02
2023-06-29T21:52:17.228Z,101555.08
2023-06-29T21:55:27.495Z,101548.67
2023-06-29T21:58:36.382Z,101544.40
2023-06-29T22:01:44.963Z,101542.60
2023-06-29T22:04:53.545Z,101539.73
2023-06-29T22:08:02.630Z,101541.29
2023-06-29T22:11:11.365Z,101536.68
2023-06-29T22:14:20.048Z,101541.39
2023-06-29T22:17:29.911Z,101541.52
2023-06-29T22:20:50.818Z,101545.02
2023-06-29T22:24:00.669Z,101546.77
2023-06-29T22:27:10.580Z,101555.19
2023-06-29T22:30:10.623Z,101559.47
2023-06-29T22:33:19.190Z,101558.73
2023-06-29T22:36:27.850Z,101560.73
2023-06-29T22:39:36.790Z,101564.84
2023-06-29T22:42:45.654Z,101563.64
2023-06-29T22:45:54.237Z,101562.65
2023-06-29T22:49:02.981Z,101559.01
2023-06-29T22:52:11.536Z,101559.23
2023-06-29T22:55:20.748Z,101556.65
2023-06-29T22:58:29.418Z,101556.48
2023-06-29T23:01:39.229Z,101553.66
2023-06-29T23:04:48.073Z,101549.80
2023-06-29T23:07:56.684Z,101543.98
2023-06-29T23:11:05.444Z,101543.80
2023-06-29T23:14:14.213Z,101537.81
2023-06-29T23:17:25.702Z,101533.42
2023-06-29T23:20:34.267Z,101530.79
2023-06-29T23:23:43.022Z,101526.16
2023-06-29T23:26:51.977Z,101523.65
2023-06-29T23:30:00.498Z,101517.91
2023-06-29T23:33:09.755Z,101518.69
2023-06-29T23:36:18.693Z,101517.83
2023-06-29T23:39:27.366Z,101516.77
2023-06-29T23:42:36.075Z,101518.74
2023-06-29T23:45:45.133Z,101521.13
2023-06-29T23:48:54.271Z,101522.46
2023-06-29T23:52:02.887Z,101526.80
2023-06-29T23:55:12.509Z,101533.67
2023-06-29T23:58:21.757Z,101537.97
